sensor_id;sensor_type;location;lat;lon;timestamp;temperature;humidity
15937;DHT22;9163;48.818;8.976;2023-07-13T00:00:30;18.90;1.00
15937;DHT22;9163;48.818;8.976;2023-07-13T00:02:58;18.90;1.00
15937;DHT22;9163;48.818;8.976;2023-07-13T00:05:25;18.80;1.00
15937;DHT22;9163;48.818;8.976;2023-07-13T00:07:53;18.80;1.00
15937;DHT22;9163;48.818;8.976;2023-07-13T00:10:21;18.80;1.00
15937;DHT22;9163;48.818;8.976;2023-07-13T00:12:50;18.70;1.00
15937;DHT22;9163;48.818;8.976;2023-07-13T00:15:22;18.70;1.00
15937;DHT22;9163;48.818;8.976;2023-07-13T00:17:49;18.70;1.00
15937;DHT22;9163;48.818;8.976;2023-07-13T00:20:17;18.70;1.00
15937;DHT22;9163;48.818;8.976;2023-07-13T00:22:44;18.70;1.00
15937;DHT22;9163;48.818;8.976;2023-07-13T00:25:11;18.70;1.00
15937;DHT22;9163;48.818;8.976;2023-07-13T00:27:38;18.60;1.00
15937;DHT22;9163;48.818;8.976;2023-07-13T00:30:08;18.60;1.00
15937;DHT22;9163;48.818;8.976;2023-07-13T00:32:36;18.60;1.00
15937;DHT22;9163;48.818;8.976;2023-07-13T00:35:04;18.60;1.00
15937;DHT22;9163;48.818;8.976;2023-07-13T00:37:31;18.60;1.00
15937;DHT22;9163;48.818;8.976;2023-07-13T00:39:59;18.60;1.00
15937;DHT22;9163;48.818;8.976;2023-07-13T00:42:26;18.60;1.00
15937;DHT22;9163;48.818;8.976;2023-07-13T00:48:17;18.60;1.00
15937;DHT22;9163;48.818;8.976;2023-07-13T00:50:48;18.60;1.00
15937;DHT22;9163;48.818;8.976;2023-07-13T00:53:16;18.60;1.00
15937;DHT22;9163;48.818;8.976;2023-07-13T00:55:45;18.50;1.00
15937;DHT22;9163;48.818;8.976;2023-07-13T00:58:12;18.50;1.00
15937;DHT22;9163;48.818;8.976;2023-07-13T01:00:41;18.50;1.00
15937;DHT22;9163;48.818;8.976;2023-07-13T01:03:09;18.60;1.00
15937;DHT22;9163;48.818;8.976;2023-07-13T01:05:36;18.50;1.00
15937;DHT22;9163;48.818;8.976;2023-07-13T01:08:04;18.50;1.00
15937;DHT22;9163;48.818;8.976;2023-07-13T01:10:32;18.50;1.00
15937;DHT22;9163;48.818;8.976;2023-07-13T01:13:05;18.50;1.00
15937;DHT22;9163;48.818;8.976;2023-07-13T01:15:37;18.40;1.00
15937;DHT22;9163;48.818;8.976;2023-07-13T01:18:07;18.30;1.00
15937;DHT22;9163;48.818;8.976;2023-07-13T01:20:37;18.30;1.00
15937;DHT22;9163;48.818;8.976;2023-07-13T01:23:08;18.20;1.00
15937;DHT22;9163;48.818;8.976;2023-07-13T01:25:36;18.20;1.00
15937;DHT22;9163;48.818;8.976;2023-07-13T01:28:04;18.10;1.00
15937;DHT22;9163;48.818;8.976;2023-07-13T01:30:31;18.00;1.00
15937;DHT22;9163;48.818;8.976;2023-07-13T01:32:58;18.00;1.00
15937;DHT22;9163;48.818;8.976;2023-07-13T01:35:26;18.00;1.00
15937;DHT22;9163;48.818;8.976;2023-07-13T01:37:53;18.00;1.00
15937;DHT22;9163;48.818;8.976;2023-07-13T01:40:24;18.00;1.00
15937;DHT22;9163;48.818;8.976;2023-07-13T01:42:51;17.90;1.00
15937;DHT22;9163;48.818;8.976;2023-07-13T01:45:18;17.90;1.00
15937;DHT22;9163;48.818;8.976;2023-07-13T01:47:45;17.90;1.00
15937;DHT22;9163;48.818;8.976;2023-07-13T01:50:12;18.00;1.00
15937;DHT22;9163;48.818;8.976;2023-07-13T01:52:40;18.00;1.00
15937;DHT22;9163;48.818;8.976;2023-07-13T01:55:08;17.90;1.00
15937;DHT22;9163;48.818;8.976;2023-07-13T01:57:36;17.90;1.00
15937;DHT22;9163;48.818;8.976;2023-07-13T02:00:06;17.80;1.00
15937;DHT22;9163;48.818;8.976;2023-07-13T02:02:33;17.90;1.00
15937;DHT22;9163;48.818;8.976;2023-07-13T02:05:01;17.80;1.00
15937;DHT22;9163;48.818;8.976;2023-07-13T02:07:28;17.80;1.00
15937;DHT22;9163;48.818;8.976;2023-07-13T02:09:55;17.70;1.00
15937;DHT22;9163;48.818;8.976;2023-07-13T02:12:22;17.70;1.00
15937;DHT22;9163;48.818;8.976;2023-07-13T02:14:51;17.60;1.00
15937;DHT22;9163;48.818;8.976;2023-07-13T02:17:18;17.50;1.00
15937;DHT22;9163;48.818;8.976;2023-07-13T02:19:45;17.30;1.00
15937;DHT22;9163;48.818;8.976;2023-07-13T02:22:12;17.20;1.00
15937;DHT22;9163;48.818;8.976;2023-07-13T02:24:40;17.10;1.00
15937;DHT22;9163;48.818;8.976;2023-07-13T02:27:07;17.00;1.00
15937;DHT22;9163;48.818;8.976;2023-07-13T02:29:34;16.90;1.00
15937;DHT22;9163;48.818;8.976;2023-07-13T02:32:03;16.80;1.00
15937;DHT22;9163;48.818;8.976;2023-07-13T02:34:31;16.70;1.00
15937;DHT22;9163;48.818;8.976;2023-07-13T02:36:58;16.60;1.00
15937;DHT22;9163;48.818;8.976;2023-07-13T02:39:25;16.60;1.00
15937;DHT22;9163;48.818;8.976;2023-07-13T02:41:52;16.40;1.00
15937;DHT22;9163;48.818;8.976;2023-07-13T02:44:20;16.30;4.00
15937;DHT22;9163;48.818;8.976;2023-07-13T02:46:47;16.30;9.70
15937;DHT22;9163;48.818;8.976;2023-07-13T02:49:15;16.40;12.20
15937;DHT22;9163;48.818;8.976;2023-07-13T02:51:43;16.30;15.60
15937;DHT22;9163;48.818;8.976;2023-07-13T02:54:10;16.40;11.00
15937;DHT22;9163;48.818;8.976;2023-07-13T02:56:39;16.50;11.40
15937;DHT22;9163;48.818;8.976;2023-07-13T02:59:07;16.50;16.80
15937;DHT22;9163;48.818;8.976;2023-07-13T03:01:34;16.50;12.60
15937;DHT22;9163;48.818;8.976;2023-07-13T03:04:02;16.50;12.80
15937;DHT22;9163;48.818;8.976;2023-07-13T03:06:32;16.50;2.20
15937;DHT22;9163;48.818;8.976;2023-07-13T03:08:59;16.50;2.50
15937;DHT22;9163;48.818;8.976;2023-07-13T03:11:27;16.50;1.40
15937;DHT22;9163;48.818;8.976;2023-07-13T03:13:57;16.60;2.40
15937;DHT22;9163;48.818;8.976;2023-07-13T03:16:24;16.60;1.00
15937;DHT22;9163;48.818;8.976;2023-07-13T03:18:52;16.60;1.00
15937;DHT22;9163;48.818;8.976;2023-07-13T03:21:19;16.60;1.00
15937;DHT22;9163;48.818;8.976;2023-07-13T03:23:47;16.60;1.00
15937;DHT22;9163;48.818;8.976;2023-07-13T03:26:16;16.60;1.00
15937;DHT22;9163;48.818;8.976;2023-07-13T03:28:44;16.50;1.00
15937;DHT22;9163;48.818;8.976;2023-07-13T03:31:14;16.60;1.00
15937;DHT22;9163;48.818;8.976;2023-07-13T03:33:41;16.50;1.00
15937;DHT22;9163;48.818;8.976;2023-07-13T03:36:12;16.40;1.00
15937;DHT22;9163;48.818;8.976;2023-07-13T03:38:42;16.30;3.40
15937;DHT22;9163;48.818;8.976;2023-07-13T03:41:10;16.30;10.10
15937;DHT22;9163;48.818;8.976;2023-07-13T03:43:37;16.30;16.70
15937;DHT22;9163;48.818;8.976;2023-07-13T03:46:04;16.20;20.30
15937;DHT22;9163;48.818;8.976;2023-07-13T03:48:32;16.20;19.00
15937;DHT22;9163;48.818;8.976;2023-07-13T03:50:59;16.20;17.60
15937;DHT22;9163;48.818;8.976;2023-07-13T03:53:27;16.10;19.30
15937;DHT22;9163;48.818;8.976;2023-07-13T03:55:54;16.10;26.60
15937;DHT22;9163;48.818;8.976;2023-07-13T03:58:30;16.10;30.50
15937;DHT22;9163;48.818;8.976;2023-07-13T04:00:58;16.10;39.20
15937;DHT22;9163;48.818;8.976;2023-07-13T04:03:25;16.10;47.00
15937;DHT22;9163;48.818;8.976;2023-07-13T04:05:54;16.10;40.40
15937;DHT22;9163;48.818;8.976;2023-07-13T04:08:26;16.00;41.10
15937;DHT22;9163;48.818;8.976;2023-07-13T04:10:54;16.00;51.90
15937;DHT22;9163;48.818;8.976;2023-07-13T04:13:21;16.00;51.00
15937;DHT22;9163;48.818;8.976;2023-07-13T04:15:50;16.00;52.80
15937;DHT22;9163;48.818;8.976;2023-07-13T04:18:17;16.10;55.20
15937;DHT22;9163;48.818;8.976;2023-07-13T04:20:45;16.10;56.80
15937;DHT22;9163;48.818;8.976;2023-07-13T04:23:13;16.10;64.60
15937;DHT22;9163;48.818;8.976;2023-07-13T04:25:43;16.10;64.80
15937;DHT22;9163;48.818;8.976;2023-07-13T04:28:11;16.10;59.90
15937;DHT22;9163;48.818;8.976;2023-07-13T04:30:38;16.10;54.70
15937;DHT22;9163;48.818;8.976;2023-07-13T04:33:06;16.10;58.80
15937;DHT22;9163;48.818;8.976;2023-07-13T04:35:34;16.00;56.40
15937;DHT22;9163;48.818;8.976;2023-07-13T04:38:02;16.10;55.70
15937;DHT22;9163;48.818;8.976;2023-07-13T04:40:29;16.10;66.50
15937;DHT22;9163;48.818;8.976;2023-07-13T04:42:56;16.00;70.60
15937;DHT22;9163;48.818;8.976;2023-07-13T04:45:24;16.00;76.70
15937;DHT22;9163;48.818;8.976;2023-07-13T04:47:51;15.90;86.20
15937;DHT22;9163;48.818;8.976;2023-07-13T04:50:20;15.80;90.40
15937;DHT22;9163;48.818;8.976;2023-07-13T04:52:49;15.90;87.70
15937;DHT22;9163;48.818;8.976;2023-07-13T04:55:17;15.90;91.10
15937;DHT22;9163;48.818;8.976;2023-07-13T04:57:44;15.90;90.50
15937;DHT22;9163;48.818;8.976;2023-07-13T05:00:13;15.90;75.40
15937;DHT22;9163;48.818;8.976;2023-07-13T05:02:43;16.00;71.50
15937;DHT22;9163;48.818;8.976;2023-07-13T05:05:11;16.20;61.80
15937;DHT22;9163;48.818;8.976;2023-07-13T05:07:39;16.30;52.60
15937;DHT22;9163;48.818;8.976;2023-07-13T05:10:08;16.40;52.00
15937;DHT22;9163;48.818;8.976;2023-07-13T05:12:35;16.60;45.70
15937;DHT22;9163;48.818;8.976;2023-07-13T05:15:03;16.70;42.10
15937;DHT22;9163;48.818;8.976;2023-07-13T05:17:30;16.90;31.30
15937;DHT22;9163;48.818;8.976;2023-07-13T05:19:57;17.10;25.00
15937;DHT22;9163;48.818;8.976;2023-07-13T05:22:25;17.20;16.30
15937;DHT22;9163;48.818;8.976;2023-07-13T05:24:53;17.30;10.30
15937;DHT22;9163;48.818;8.976;2023-07-13T05:27:21;17.40;17.00
15937;DHT22;9163;48.818;8.976;2023-07-13T05:29:48;17.40;29.70
15937;DHT22;9163;48.818;8.976;2023-07-13T05:32:16;17.40;41.90
15937;DHT22;9163;48.818;8.976;2023-07-13T05:34:43;17.40;46.80
15937;DHT22;9163;48.818;8.976;2023-07-13T05:37:11;17.50;46.10
15937;DHT22;9163;48.818;8.976;2023-07-13T05:39:38;17.50;41.90
15937;DHT22;9163;48.818;8.976;2023-07-13T05:42:07;17.60;43.60
15937;DHT22;9163;48.818;8.976;2023-07-13T05:44:34;17.70;26.50
15937;DHT22;9163;48.818;8.976;2023-07-13T05:47:02;17.80;24.40
15937;DHT22;9163;48.818;8.976;2023-07-13T05:49:29;17.80;13.60
15937;DHT22;9163;48.818;8.976;2023-07-13T05:51:57;17.90;22.50
15937;DHT22;9163;48.818;8.976;2023-07-13T05:54:24;17.90;27.30
15937;DHT22;9163;48.818;8.976;2023-07-13T05:56:51;18.00;22.80
15937;DHT22;9163;48.818;8.976;2023-07-13T05:59:20;18.00;19.10
15937;DHT22;9163;48.818;8.976;2023-07-13T06:01:47;17.90;23.10
15937;DHT22;9163;48.818;8.976;2023-07-13T06:04:14;18.00;24.00
15937;DHT22;9163;48.818;8.976;2023-07-13T06:06:42;18.00;30.00
15937;DHT22;9163;48.818;8.976;2023-07-13T06:09:09;18.00;37.80
15937;DHT22;9163;48.818;8.976;2023-07-13T06:11:36;18.00;51.40
15937;DHT22;9163;48.818;8.976;2023-07-13T06:14:03;18.00;50.20
15937;DHT22;9163;48.818;8.976;2023-07-13T06:16:32;18.10;57.40
15937;DHT22;9163;48.818;8.976;2023-07-13T06:18:59;18.20;39.80
15937;DHT22;9163;48.818;8.976;2023-07-13T06:21:26;18.30;25.40
15937;DHT22;9163;48.818;8.976;2023-07-13T06:23:53;18.30;19.40
15937;DHT22;9163;48.818;8.976;2023-07-13T06:26:21;18.50;9.90
15937;DHT22;9163;48.818;8.976;2023-07-13T06:28:48;18.70;1.00
15937;DHT22;9163;48.818;8.976;2023-07-13T06:31:16;18.70;1.00
15937;DHT22;9163;48.818;8.976;2023-07-13T06:33:45;18.80;1.00
15937;DHT22;9163;48.818;8.976;2023-07-13T06:36:13;19.10;1.00
15937;DHT22;9163;48.818;8.976;2023-07-13T06:38:40;19.40;1.00
15937;DHT22;9163;48.818;8.976;2023-07-13T06:41:08;19.50;1.00
15937;DHT22;9163;48.818;8.976;2023-07-13T06:43:35;19.80;1.00
15937;DHT22;9163;48.818;8.976;2023-07-13T06:46:02;19.90;1.00
15937;DHT22;9163;48.818;8.976;2023-07-13T06:48:30;19.70;1.00
15937;DHT22;9163;48.818;8.976;2023-07-13T06:50:58;20.00;1.00
15937;DHT22;9163;48.818;8.976;2023-07-13T06:53:26;20.20;1.00
15937;DHT22;9163;48.818;8.976;2023-07-13T06:55:53;19.80;1.00
15937;DHT22;9163;48.818;8.976;2023-07-13T06:58:21;19.70;1.00
15937;DHT22;9163;48.818;8.976;2023-07-13T07:00:50;19.70;1.00
15937;DHT22;9163;48.818;8.976;2023-07-13T07:03:18;20.00;1.00
15937;DHT22;9163;48.818;8.976;2023-07-13T07:05:45;20.20;1.00
15937;DHT22;9163;48.818;8.976;2023-07-13T07:08:14;20.00;1.00
15937;DHT22;9163;48.818;8.976;2023-07-13T07:10:42;20.30;1.00
15937;DHT22;9163;48.818;8.976;2023-07-13T07:13:09;20.40;1.00
15937;DHT22;9163;48.818;8.976;2023-07-13T07:15:36;20.30;1.00
15937;DHT22;9163;48.818;8.976;2023-07-13T07:18:04;20.50;1.00
15937;DHT22;9163;48.818;8.976;2023-07-13T07:20:31;20.30;1.00
15937;DHT22;9163;48.818;8.976;2023-07-13T07:22:58;20.30;1.00
15937;DHT22;9163;48.818;8.976;2023-07-13T07:25:27;20.40;1.00
15937;DHT22;9163;48.818;8.976;2023-07-13T07:27:57;20.40;1.00
15937;DHT22;9163;48.818;8.976;2023-07-13T07:30:25;20.60;1.00
15937;DHT22;9163;48.818;8.976;2023-07-13T07:32:52;20.80;1.00
15937;DHT22;9163;48.818;8.976;2023-07-13T07:35:19;21.20;1.00
15937;DHT22;9163;48.818;8.976;2023-07-13T07:37:46;21.00;1.00
15937;DHT22;9163;48.818;8.976;2023-07-13T07:40:14;21.40;1.00
15937;DHT22;9163;48.818;8.976;2023-07-13T07:42:42;21.20;1.00
15937;DHT22;9163;48.818;8.976;2023-07-13T07:45:10;21.50;1.00
15937;DHT22;9163;48.818;8.976;2023-07-13T07:47:37;21.60;1.00
15937;DHT22;9163;48.818;8.976;2023-07-13T07:50:05;21.80;99.90
15937;DHT22;9163;48.818;8.976;2023-07-13T07:52:33;21.60;99.90
15937;DHT22;9163;48.818;8.976;2023-07-13T07:55:00;21.80;99.90
15937;DHT22;9163;48.818;8.976;2023-07-13T07:57:27;21.80;99.90
15937;DHT22;9163;48.818;8.976;2023-07-13T07:59:56;22.00;99.90
15937;DHT22;9163;48.818;8.976;2023-07-13T08:02:24;22.40;99.90
15937;DHT22;9163;48.818;8.976;2023-07-13T08:04:51;22.60;99.90
15937;DHT22;9163;48.818;8.976;2023-07-13T08:07:19;22.60;99.90
15937;DHT22;9163;48.818;8.976;2023-07-13T08:09:46;23.00;99.90
15937;DHT22;9163;48.818;8.976;2023-07-13T08:12:13;22.90;32.40
15937;DHT22;9163;48.818;8.976;2023-07-13T08:14:40;22.80;99.90
15937;DHT22;9163;48.818;8.976;2023-07-13T08:17:09;23.20;33.50
15937;DHT22;9163;48.818;8.976;2023-07-13T08:19:36;23.30;1.00
15937;DHT22;9163;48.818;8.976;2023-07-13T08:22:04;23.00;1.00
15937;DHT22;9163;48.818;8.976;2023-07-13T08:24:31;23.50;52.10
15937;DHT22;9163;48.818;8.976;2023-07-13T08:26:58;23.40;1.00
15937;DHT22;9163;48.818;8.976;2023-07-13T08:29:26;23.90;1.00
15937;DHT22;9163;48.818;8.976;2023-07-13T08:31:53;24.30;1.00
15937;DHT22;9163;48.818;8.976;2023-07-13T08:34:22;24.60;1.00
15937;DHT22;9163;48.818;8.976;2023-07-13T08:36:49;24.90;1.00
15937;DHT22;9163;48.818;8.976;2023-07-13T08:39:16;25.00;1.00
15937;DHT22;9163;48.818;8.976;2023-07-13T08:41:44;24.70;1.00
15937;DHT22;9163;48.818;8.976;2023-07-13T08:44:19;24.60;99.90
15937;DHT22;9163;48.818;8.976;2023-07-13T08:46:50;24.70;1.00
15937;DHT22;9163;48.818;8.976;2023-07-13T08:49:23;24.70;1.00
15937;DHT22;9163;48.818;8.976;2023-07-13T08:51:54;24.90;99.90
15937;DHT22;9163;48.818;8.976;2023-07-13T08:54:38;24.50;99.90
15937;DHT22;9163;48.818;8.976;2023-07-13T08:57:12;24.50;99.90
15937;DHT22;9163;48.818;8.976;2023-07-13T08:59:40;24.50;99.90
15937;DHT22;9163;48.818;8.976;2023-07-13T09:02:25;24.40;99.90
15937;DHT22;9163;48.818;8.976;2023-07-13T09:04:56;25.50;99.90
15937;DHT22;9163;48.818;8.976;2023-07-13T09:07:34;25.90;99.90
15937;DHT22;9163;48.818;8.976;2023-07-13T09:10:14;26.10;99.90
15937;DHT22;9163;48.818;8.976;2023-07-13T09:12:50;26.30;99.90
15937;DHT22;9163;48.818;8.976;2023-07-13T09:15:25;26.50;99.90
15937;DHT22;9163;48.818;8.976;2023-07-13T09:17:54;26.20;1.00
15937;DHT22;9163;48.818;8.976;2023-07-13T09:20:29;25.50;1.00
15937;DHT22;9163;48.818;8.976;2023-07-13T09:23:00;25.30;1.00
15937;DHT22;9163;48.818;8.976;2023-07-13T09:25:31;26.10;23.40
15937;DHT22;9163;48.818;8.976;2023-07-13T09:28:05;26.30;1.00
15937;DHT22;9163;48.818;8.976;2023-07-13T09:30:43;27.00;1.00
15937;DHT22;9163;48.818;8.976;2023-07-13T09:33:11;27.30;1.00
15937;DHT22;9163;48.818;8.976;2023-07-13T09:35:41;28.00;21.80
15937;DHT22;9163;48.818;8.976;2023-07-13T09:38:13;28.50;1.00
15937;DHT22;9163;48.818;8.976;2023-07-13T09:41:08;28.70;1.00
15937;DHT22;9163;48.818;8.976;2023-07-13T09:44:00;28.10;1.00
15937;DHT22;9163;48.818;8.976;2023-07-13T09:46:27;26.70;1.00
15937;DHT22;9163;48.818;8.976;2023-07-13T09:48:56;26.80;1.00
15937;DHT22;9163;48.818;8.976;2023-07-13T09:51:24;27.10;1.00
15937;DHT22;9163;48.818;8.976;2023-07-13T09:53:52;27.00;1.00
15937;DHT22;9163;48.818;8.976;2023-07-13T09:56:21;27.40;1.00
15937;DHT22;9163;48.818;8.976;2023-07-13T09:58:49;27.60;1.00
15937;DHT22;9163;48.818;8.976;2023-07-13T10:01:16;27.90;1.00
15937;DHT22;9163;48.818;8.976;2023-07-13T10:03:57;27.90;1.00
15937;DHT22;9163;48.818;8.976;2023-07-13T10:06:27;27.30;1.00
15937;DHT22;9163;48.818;8.976;2023-07-13T10:08:57;27.30;1.00
15937;DHT22;9163;48.818;8.976;2023-07-13T10:11:27;27.20;1.00
15937;DHT22;9163;48.818;8.976;2023-07-13T10:13:58;27.50;1.00
15937;DHT22;9163;48.818;8.976;2023-07-13T10:16:32;27.30;1.00
15937;DHT22;9163;48.818;8.976;2023-07-13T10:19:03;26.70;1.00
15937;DHT22;9163;48.818;8.976;2023-07-13T10:21:41;27.50;1.00
15937;DHT22;9163;48.818;8.976;2023-07-13T10:24:14;27.60;1.00
15937;DHT22;9163;48.818;8.976;2023-07-13T10:26:46;27.90;1.00
15937;DHT22;9163;48.818;8.976;2023-07-13T10:29:16;27.10;1.00
15937;DHT22;9163;48.818;8.976;2023-07-13T10:31:45;26.90;1.00
15937;DHT22;9163;48.818;8.976;2023-07-13T10:34:13;26.50;1.00
15937;DHT22;9163;48.818;8.976;2023-07-13T10:36:44;26.10;1.00
15937;DHT22;9163;48.818;8.976;2023-07-13T10:39:16;25.60;1.00
15937;DHT22;9163;48.818;8.976;2023-07-13T10:41:47;25.20;1.00
15937;DHT22;9163;48.818;8.976;2023-07-13T10:44:22;24.60;1.00
15937;DHT22;9163;48.818;8.976;2023-07-13T10:46:56;24.70;1.00
15937;DHT22;9163;48.818;8.976;2023-07-13T10:49:27;25.60;1.00
15937;DHT22;9163;48.818;8.976;2023-07-13T10:51:57;25.80;1.00
15937;DHT22;9163;48.818;8.976;2023-07-13T10:54:28;26.30;1.00
15937;DHT22;9163;48.818;8.976;2023-07-13T10:57:16;26.80;1.00
15937;DHT22;9163;48.818;8.976;2023-07-13T10:59:47;27.20;1.00
15937;DHT22;9163;48.818;8.976;2023-07-13T11:02:21;27.00;1.00
15937;DHT22;9163;48.818;8.976;2023-07-13T11:04:49;27.40;1.00
15937;DHT22;9163;48.818;8.976;2023-07-13T11:07:23;28.20;1.00
15937;DHT22;9163;48.818;8.976;2023-07-13T11:09:52;27.80;1.00
15937;DHT22;9163;48.818;8.976;2023-07-13T11:15:12;27.70;1.00
15937;DHT22;9163;48.818;8.976;2023-07-13T11:17:50;28.10;1.00
15937;DHT22;9163;48.818;8.976;2023-07-13T11:20:30;28.40;1.00
15937;DHT22;9163;48.818;8.976;2023-07-13T11:23:17;28.70;1.00
15937;DHT22;9163;48.818;8.976;2023-07-13T11:25:45;29.00;1.00
15937;DHT22;9163;48.818;8.976;2023-07-13T11:28:16;28.30;1.00
15937;DHT22;9163;48.818;8.976;2023-07-13T11:30:47;28.10;1.00
15937;DHT22;9163;48.818;8.976;2023-07-13T11:33:17;28.20;99.90
15937;DHT22;9163;48.818;8.976;2023-07-13T11:35:53;28.20;99.90
15937;DHT22;9163;48.818;8.976;2023-07-13T11:38:30;28.00;1.00
15937;DHT22;9163;48.818;8.976;2023-07-13T11:41:01;27.40;99.90
15937;DHT22;9163;48.818;8.976;2023-07-13T11:43:30;27.40;99.90
15937;DHT22;9163;48.818;8.976;2023-07-13T11:46:12;28.30;99.90
15937;DHT22;9163;48.818;8.976;2023-07-13T11:48:40;28.50;99.90
15937;DHT22;9163;48.818;8.976;2023-07-13T11:51:18;28.30;99.90
15937;DHT22;9163;48.818;8.976;2023-07-13T11:53:49;28.50;99.90
15937;DHT22;9163;48.818;8.976;2023-07-13T11:56:17;28.50;99.90
15937;DHT22;9163;48.818;8.976;2023-07-13T11:58:49;27.70;99.90
15937;DHT22;9163;48.818;8.976;2023-07-13T12:01:21;27.40;99.90
15937;DHT22;9163;48.818;8.976;2023-07-13T12:03:49;28.60;99.90
15937;DHT22;9163;48.818;8.976;2023-07-13T12:06:27;29.40;99.90
15937;DHT22;9163;48.818;8.976;2023-07-13T12:09:11;28.90;99.90
15937;DHT22;9163;48.818;8.976;2023-07-13T12:11:43;28.60;99.90
15937;DHT22;9163;48.818;8.976;2023-07-13T12:14:14;29.30;99.90
15937;DHT22;9163;48.818;8.976;2023-07-13T12:16:46;28.80;99.90
15937;DHT22;9163;48.818;8.976;2023-07-13T12:19:18;29.40;99.90
15937;DHT22;9163;48.818;8.976;2023-07-13T12:21:47;30.30;99.90
15937;DHT22;9163;48.818;8.976;2023-07-13T12:24:18;30.20;99.90
15937;DHT22;9163;48.818;8.976;2023-07-13T12:26:50;30.00;99.90
15937;DHT22;9163;48.818;8.976;2023-07-13T12:29:18;29.40;99.90
15937;DHT22;9163;48.818;8.976;2023-07-13T12:31:47;29.20;99.90
15937;DHT22;9163;48.818;8.976;2023-07-13T12:34:17;29.30;99.90
15937;DHT22;9163;48.818;8.976;2023-07-13T12:36:58;29.40;33.20
15937;DHT22;9163;48.818;8.976;2023-07-13T12:39:32;29.90;99.90
15937;DHT22;9163;48.818;8.976;2023-07-13T12:42:18;30.20;99.90
15937;DHT22;9163;48.818;8.976;2023-07-13T12:44:50;28.50;99.90
15937;DHT22;9163;48.818;8.976;2023-07-13T12:47:20;28.40;36.40
15937;DHT22;9163;48.818;8.976;2023-07-13T12:49:49;29.20;99.90
15937;DHT22;9163;48.818;8.976;2023-07-13T12:52:20;29.70;99.90
15937;DHT22;9163;48.818;8.976;2023-07-13T12:55:03;29.50;87.10
15937;DHT22;9163;48.818;8.976;2023-07-13T12:57:30;29.70;99.90
15937;DHT22;9163;48.818;8.976;2023-07-13T12:59:58;30.20;99.90
15937;DHT22;9163;48.818;8.976;2023-07-13T13:02:29;30.10;96.80
15937;DHT22;9163;48.818;8.976;2023-07-13T13:04:57;30.20;96.30
15937;DHT22;9163;48.818;8.976;2023-07-13T13:07:26;29.50;7.10
15937;DHT22;9163;48.818;8.976;2023-07-13T13:09:53;29.40;1.00
15937;DHT22;9163;48.818;8.976;2023-07-13T13:12:22;28.80;1.00
15937;DHT22;9163;48.818;8.976;2023-07-13T13:14:52;29.50;1.00
15937;DHT22;9163;48.818;8.976;2023-07-13T13:17:21;28.90;1.00
15937;DHT22;9163;48.818;8.976;2023-07-13T13:19:50;29.10;1.00
15937;DHT22;9163;48.818;8.976;2023-07-13T13:22:20;28.60;1.00
15937;DHT22;9163;48.818;8.976;2023-07-13T13:24:50;28.60;1.00
15937;DHT22;9163;48.818;8.976;2023-07-13T13:27:19;28.80;1.00
15937;DHT22;9163;48.818;8.976;2023-07-13T13:29:49;29.60;1.00
15937;DHT22;9163;48.818;8.976;2023-07-13T13:32:18;29.80;26.20
15937;DHT22;9163;48.818;8.976;2023-07-13T13:34:45;30.40;99.90
15937;DHT22;9163;48.818;8.976;2023-07-13T13:37:19;30.10;42.30
15937;DHT22;9163;48.818;8.976;2023-07-13T13:39:47;30.20;99.90
15937;DHT22;9163;48.818;8.976;2023-07-13T13:42:14;29.50;1.00
15937;DHT22;9163;48.818;8.976;2023-07-13T13:44:42;29.80;1.00
15937;DHT22;9163;48.818;8.976;2023-07-13T13:47:28;30.30;1.00
15937;DHT22;9163;48.818;8.976;2023-07-13T13:50:13;29.90;1.00
15937;DHT22;9163;48.818;8.976;2023-07-13T13:52:42;30.00;1.00
15937;DHT22;9163;48.818;8.976;2023-07-13T13:55:16;30.20;1.00
15937;DHT22;9163;48.818;8.976;2023-07-13T13:57:45;30.10;1.00
15937;DHT22;9163;48.818;8.976;2023-07-13T14:00:13;29.20;1.00
15937;DHT22;9163;48.818;8.976;2023-07-13T14:02:46;29.20;1.00
15937;DHT22;9163;48.818;8.976;2023-07-13T14:05:20;29.20;1.00
15937;DHT22;9163;48.818;8.976;2023-07-13T14:07:48;29.70;1.00
15937;DHT22;9163;48.818;8.976;2023-07-13T14:10:17;29.40;1.00
15937;DHT22;9163;48.818;8.976;2023-07-13T14:12:52;29.50;1.00
15937;DHT22;9163;48.818;8.976;2023-07-13T14:15:24;29.80;1.00
15937;DHT22;9163;48.818;8.976;2023-07-13T14:17:53;29.10;1.00
15937;DHT22;9163;48.818;8.976;2023-07-13T14:20:22;28.90;1.00
15937;DHT22;9163;48.818;8.976;2023-07-13T14:22:51;29.50;1.00
15937;DHT22;9163;48.818;8.976;2023-07-13T14:25:20;30.00;1.00
15937;DHT22;9163;48.818;8.976;2023-07-13T14:27:51;30.20;1.00
15937;DHT22;9163;48.818;8.976;2023-07-13T14:30:21;30.10;1.00
15937;DHT22;9163;48.818;8.976;2023-07-13T14:32:49;30.30;1.00
15937;DHT22;9163;48.818;8.976;2023-07-13T14:35:29;29.60;1.00
15937;DHT22;9163;48.818;8.976;2023-07-13T14:38:01;29.00;1.00
15937;DHT22;9163;48.818;8.976;2023-07-13T14:40:33;29.30;1.00
15937;DHT22;9163;48.818;8.976;2023-07-13T14:43:00;29.30;1.00
15937;DHT22;9163;48.818;8.976;2023-07-13T14:45:28;29.50;1.00
15937;DHT22;9163;48.818;8.976;2023-07-13T14:47:57;29.00;1.00
15937;DHT22;9163;48.818;8.976;2023-07-13T14:50:30;29.20;1.00
15937;DHT22;9163;48.818;8.976;2023-07-13T14:52:58;29.10;1.00
15937;DHT22;9163;48.818;8.976;2023-07-13T14:55:25;28.70;1.00
15937;DHT22;9163;48.818;8.976;2023-07-13T14:57:53;28.20;1.00
15937;DHT22;9163;48.818;8.976;2023-07-13T15:00:21;27.30;1.00
15937;DHT22;9163;48.818;8.976;2023-07-13T15:02:51;27.70;1.00
15937;DHT22;9163;48.818;8.976;2023-07-13T15:05:21;28.00;1.00
15937;DHT22;9163;48.818;8.976;2023-07-13T15:07:52;28.20;1.00
15937;DHT22;9163;48.818;8.976;2023-07-13T15:10:21;28.20;1.00
15937;DHT22;9163;48.818;8.976;2023-07-13T15:12:51;28.10;1.00
15937;DHT22;9163;48.818;8.976;2023-07-13T15:15:19;28.00;1.00
15937;DHT22;9163;48.818;8.976;2023-07-13T15:17:48;28.40;1.00
15937;DHT22;9163;48.818;8.976;2023-07-13T15:20:19;27.80;1.00
15937;DHT22;9163;48.818;8.976;2023-07-13T15:22:48;27.50;1.00
15937;DHT22;9163;48.818;8.976;2023-07-13T15:25:20;27.80;1.00
15937;DHT22;9163;48.818;8.976;2023-07-13T15:27:48;26.90;1.00
15937;DHT22;9163;48.818;8.976;2023-07-13T15:30:16;27.10;1.00
15937;DHT22;9163;48.818;8.976;2023-07-13T15:32:45;26.90;1.00
15937;DHT22;9163;48.818;8.976;2023-07-13T15:35:17;26.90;1.00
15937;DHT22;9163;48.818;8.976;2023-07-13T15:37:44;26.90;1.00
15937;DHT22;9163;48.818;8.976;2023-07-13T15:40:13;26.90;1.00
15937;DHT22;9163;48.818;8.976;2023-07-13T15:42:43;26.30;1.00
15937;DHT22;9163;48.818;8.976;2023-07-13T15:45:21;26.50;1.00
15937;DHT22;9163;48.818;8.976;2023-07-13T15:47:49;26.90;1.00
15937;DHT22;9163;48.818;8.976;2023-07-13T15:50:19;27.20;1.00
15937;DHT22;9163;48.818;8.976;2023-07-13T15:52:49;26.90;1.00
15937;DHT22;9163;48.818;8.976;2023-07-13T15:55:21;26.70;1.00
15937;DHT22;9163;48.818;8.976;2023-07-13T15:57:51;26.90;1.00
15937;DHT22;9163;48.818;8.976;2023-07-13T16:00:21;26.90;1.00
15937;DHT22;9163;48.818;8.976;2023-07-13T16:02:48;26.80;1.00
15937;DHT22;9163;48.818;8.976;2023-07-13T16:05:16;27.00;1.00
15937;DHT22;9163;48.818;8.976;2023-07-13T16:07:44;27.10;1.00
15937;DHT22;9163;48.818;8.976;2023-07-13T16:10:16;27.10;1.00
15937;DHT22;9163;48.818;8.976;2023-07-13T16:12:44;27.10;1.00
15937;DHT22;9163;48.818;8.976;2023-07-13T16:15:16;27.00;1.00
15937;DHT22;9163;48.818;8.976;2023-07-13T16:17:45;26.50;1.00